Berryville, Illinois
Current Conditions -  °F | °C
As of 12:35 AM on Saturday 25 Oct 2014 (Local Time) from KOLY Reporting Station
Overcast Overcast  
Wind Chill: 54°   Ceiling: 4100
Heat Index: 54°   Visibility: 10mi
Dew Point: 50°   Wind: 0mph
Humidity: 88%   Direction: NA
Pressure: 30.03"   Gusts: NA
Location:  38.6228°N, 87.9781°W
Report Text: KOLY 250535Z AUTO 00000KT 10SM OVC041 12/10 A3003 RMK AO2
Loading
Personal Weather Stations






























Interactive Weather Map
Tropical Storm Tracking
New forecast layout! Learn more

10-Day Weather Forecast

Advertisements
Track Severe Weather on mobile